sensor_id;sensor_type;location;lat;lon;timestamp;P1;durP1;ratioP1;P2;durP2;ratioP2
47760;SDS011;33524;55.434;38.520;2023-03-30T00:02:06;19.42;;;9.82;;
47760;SDS011;33524;55.434;38.520;2023-03-30T00:04:38;14.27;;;9.07;;
47760;SDS011;33524;55.434;38.520;2023-03-30T00:07:11;15.93;;;9.60;;
47760;SDS011;33524;55.434;38.520;2023-03-30T00:12:14;15.15;;;8.60;;
47760;SDS011;33524;55.434;38.520;2023-03-30T00:14:50;14.70;;;8.98;;
47760;SDS011;33524;55.434;38.520;2023-03-30T00:17:21;15.85;;;8.98;;
47760;SDS011;33524;55.434;38.520;2023-03-30T00:22:25;14.38;;;8.23;;
47760;SDS011;33524;55.434;38.520;2023-03-30T00:24:56;16.12;;;8.07;;
47760;SDS011;33524;55.434;38.520;2023-03-30T00:27:27;14.77;;;8.65;;
47760;SDS011;33524;55.434;38.520;2023-03-30T00:30:01;15.63;;;8.45;;
47760;SDS011;33524;55.434;38.520;2023-03-30T00:35:05;13.85;;;8.68;;
47760;SDS011;33524;55.434;38.520;2023-03-30T00:37:37;15.32;;;8.52;;
47760;SDS011;33524;55.434;38.520;2023-03-30T00:40:13;15.70;;;9.75;;
47760;SDS011;33524;55.434;38.520;2023-03-30T00:42:48;15.48;;;9.10;;
47760;SDS011;33524;55.434;38.520;2023-03-30T00:45:21;12.48;;;7.60;;
47760;SDS011;33524;55.434;38.520;2023-03-30T00:48:12;15.70;;;7.82;;
47760;SDS011;33524;55.434;38.520;2023-03-30T00:51:06;15.73;;;7.78;;
47760;SDS011;33524;55.434;38.520;2023-03-30T00:53:43;13.65;;;8.93;;
47760;SDS011;33524;55.434;38.520;2023-03-30T00:56:18;15.65;;;8.00;;
47760;SDS011;33524;55.434;38.520;2023-03-30T00:58:54;14.63;;;6.20;;
47760;SDS011;33524;55.434;38.520;2023-03-30T01:01:27;14.02;;;8.75;;
47760;SDS011;33524;55.434;38.520;2023-03-30T01:04:08;11.12;;;6.30;;
47760;SDS011;33524;55.434;38.520;2023-03-30T01:06:37;13.75;;;7.60;;
47760;SDS011;33524;55.434;38.520;2023-03-30T01:09:12;14.38;;;7.93;;
47760;SDS011;33524;55.434;38.520;2023-03-30T01:11:47;13.25;;;7.80;;
47760;SDS011;33524;55.434;38.520;2023-03-30T01:14:19;13.73;;;8.38;;
47760;SDS011;33524;55.434;38.520;2023-03-30T01:16:55;10.98;;;7.05;;
47760;SDS011;33524;55.434;38.520;2023-03-30T01:25:37;16.30;;;9.27;;
47760;SDS011;33524;55.434;38.520;2023-03-30T01:28:24;13.43;;;6.80;;
47760;SDS011;33524;55.434;38.520;2023-03-30T01:34:34;13.32;;;8.40;;
47760;SDS011;33524;55.434;38.520;2023-03-30T01:42:41;9.87;;;5.73;;
47760;SDS011;33524;55.434;38.520;2023-03-30T01:45:34;15.02;;;8.45;;
47760;SDS011;33524;55.434;38.520;2023-03-30T01:48:46;13.77;;;7.78;;
47760;SDS011;33524;55.434;38.520;2023-03-30T01:51:25;16.12;;;7.32;;
47760;SDS011;33524;55.434;38.520;2023-03-30T01:54:11;16.20;;;7.25;;
47760;SDS011;33524;55.434;38.520;2023-03-30T01:56:55;13.18;;;7.43;;
47760;SDS011;33524;55.434;38.520;2023-03-30T01:59:39;17.33;;;8.38;;
47760;SDS011;33524;55.434;38.520;2023-03-30T02:02:19;16.25;;;8.25;;
47760;SDS011;33524;55.434;38.520;2023-03-30T02:04:54;20.75;;;9.35;;
47760;SDS011;33524;55.434;38.520;2023-03-30T02:07:30;18.48;;;8.85;;
47760;SDS011;33524;55.434;38.520;2023-03-30T02:10:05;17.90;;;9.10;;
47760;SDS011;33524;55.434;38.520;2023-03-30T02:12:40;19.42;;;9.43;;
47760;SDS011;33524;55.434;38.520;2023-03-30T02:15:14;16.98;;;8.65;;
47760;SDS011;33524;55.434;38.520;2023-03-30T02:17:48;16.33;;;9.23;;
47760;SDS011;33524;55.434;38.520;2023-03-30T02:20:20;19.42;;;9.35;;
47760;SDS011;33524;55.434;38.520;2023-03-30T02:22:54;16.30;;;8.48;;
47760;SDS011;33524;55.434;38.520;2023-03-30T02:25:26;15.75;;;8.05;;
47760;SDS011;33524;55.434;38.520;2023-03-30T02:27:58;17.33;;;8.98;;
47760;SDS011;33524;55.434;38.520;2023-03-30T02:30:33;14.90;;;8.38;;
47760;SDS011;33524;55.434;38.520;2023-03-30T02:35:38;14.98;;;9.50;;
47760;SDS011;33524;55.434;38.520;2023-03-30T02:46:51;15.38;;;8.30;;
47760;SDS011;33524;55.434;38.520;2023-03-30T02:49:57;13.30;;;8.20;;
47760;SDS011;33524;55.434;38.520;2023-03-30T02:55:32;13.77;;;8.20;;
47760;SDS011;33524;55.434;38.520;2023-03-30T02:58:15;17.15;;;8.98;;
47760;SDS011;33524;55.434;38.520;2023-03-30T03:00:54;13.77;;;8.75;;
47760;SDS011;33524;55.434;38.520;2023-03-30T03:03:35;14.60;;;8.90;;
47760;SDS011;33524;55.434;38.520;2023-03-30T03:06:11;14.50;;;8.77;;
47760;SDS011;33524;55.434;38.520;2023-03-30T03:08:46;15.95;;;8.70;;
47760;SDS011;33524;55.434;38.520;2023-03-30T03:11:18;14.07;;;8.63;;
47760;SDS011;33524;55.434;38.520;2023-03-30T03:13:50;13.43;;;7.73;;
47760;SDS011;33524;55.434;38.520;2023-03-30T03:16:22;14.97;;;9.13;;
47760;SDS011;33524;55.434;38.520;2023-03-30T03:18:56;14.32;;;8.15;;
47760;SDS011;33524;55.434;38.520;2023-03-30T03:21:28;15.13;;;8.00;;
47760;SDS011;33524;55.434;38.520;2023-03-30T03:24:00;14.80;;;7.80;;
47760;SDS011;33524;55.434;38.520;2023-03-30T03:26:34;15.52;;;8.93;;
47760;SDS011;33524;55.434;38.520;2023-03-30T03:29:08;14.80;;;8.73;;
47760;SDS011;33524;55.434;38.520;2023-03-30T03:31:40;15.10;;;8.13;;
47760;SDS011;33524;55.434;38.520;2023-03-30T03:34:11;13.65;;;7.65;;
47760;SDS011;33524;55.434;38.520;2023-03-30T03:36:44;12.82;;;7.82;;
47760;SDS011;33524;55.434;38.520;2023-03-30T03:39:15;17.02;;;7.75;;
47760;SDS011;33524;55.434;38.520;2023-03-30T03:44:17;14.02;;;7.75;;
47760;SDS011;33524;55.434;38.520;2023-03-30T03:46:49;15.48;;;8.65;;
47760;SDS011;33524;55.434;38.520;2023-03-30T03:49:21;15.48;;;8.48;;
47760;SDS011;33524;55.434;38.520;2023-03-30T03:51:52;13.98;;;7.25;;
47760;SDS011;33524;55.434;38.520;2023-03-30T03:54:25;13.02;;;6.57;;
47760;SDS011;33524;55.434;38.520;2023-03-30T03:56:56;12.48;;;6.80;;
47760;SDS011;33524;55.434;38.520;2023-03-30T03:59:27;11.48;;;6.47;;
47760;SDS011;33524;55.434;38.520;2023-03-30T04:01:59;14.13;;;7.40;;
47760;SDS011;33524;55.434;38.520;2023-03-30T04:04:31;13.20;;;6.95;;
47760;SDS011;33524;55.434;38.520;2023-03-30T04:07:03;17.25;;;8.65;;
47760;SDS011;33524;55.434;38.520;2023-03-30T04:09:35;14.07;;;7.18;;
47760;SDS011;33524;55.434;38.520;2023-03-30T04:12:08;14.43;;;8.27;;
47760;SDS011;33524;55.434;38.520;2023-03-30T04:14:41;13.80;;;8.20;;
47760;SDS011;33524;55.434;38.520;2023-03-30T04:17:12;12.88;;;7.25;;
47760;SDS011;33524;55.434;38.520;2023-03-30T04:19:44;12.88;;;7.43;;
47760;SDS011;33524;55.434;38.520;2023-03-30T04:22:22;16.52;;;9.35;;
47760;SDS011;33524;55.434;38.520;2023-03-30T04:24:54;13.05;;;6.37;;
47760;SDS011;33524;55.434;38.520;2023-03-30T04:27:29;14.15;;;7.62;;
47760;SDS011;33524;55.434;38.520;2023-03-30T04:30:03;13.52;;;7.85;;
47760;SDS011;33524;55.434;38.520;2023-03-30T04:32:40;13.30;;;6.85;;
47760;SDS011;33524;55.434;38.520;2023-03-30T04:35:13;13.43;;;7.30;;
47760;SDS011;33524;55.434;38.520;2023-03-30T04:37:46;13.40;;;7.15;;
47760;SDS011;33524;55.434;38.520;2023-03-30T04:40:21;13.38;;;7.68;;
47760;SDS011;33524;55.434;38.520;2023-03-30T04:42:53;14.43;;;7.35;;
47760;SDS011;33524;55.434;38.520;2023-03-30T04:45:31;13.43;;;7.70;;
47760;SDS011;33524;55.434;38.520;2023-03-30T04:48:02;11.55;;;6.55;;
47760;SDS011;33524;55.434;38.520;2023-03-30T04:50:36;16.25;;;7.57;;
47760;SDS011;33524;55.434;38.520;2023-03-30T04:53:09;12.27;;;6.75;;
47760;SDS011;33524;55.434;38.520;2023-03-30T04:55:46;14.40;;;7.18;;
47760;SDS011;33524;55.434;38.520;2023-03-30T04:58:20;11.60;;;6.28;;
47760;SDS011;33524;55.434;38.520;2023-03-30T05:00:51;12.55;;;6.87;;
47760;SDS011;33524;55.434;38.520;2023-03-30T05:03:25;16.80;;;7.40;;
47760;SDS011;33524;55.434;38.520;2023-03-30T05:05:58;16.85;;;7.60;;
47760;SDS011;33524;55.434;38.520;2023-03-30T05:08:31;16.48;;;7.68;;
47760;SDS011;33524;55.434;38.520;2023-03-30T05:11:06;14.13;;;6.78;;
47760;SDS011;33524;55.434;38.520;2023-03-30T05:13:39;22.20;;;8.35;;
47760;SDS011;33524;55.434;38.520;2023-03-30T05:16:11;15.02;;;8.38;;
47760;SDS011;33524;55.434;38.520;2023-03-30T05:18:43;12.65;;;6.10;;
47760;SDS011;33524;55.434;38.520;2023-03-30T05:21:20;15.77;;;7.65;;
47760;SDS011;33524;55.434;38.520;2023-03-30T05:23:51;13.27;;;8.10;;
47760;SDS011;33524;55.434;38.520;2023-03-30T05:26:22;13.25;;;7.07;;
47760;SDS011;33524;55.434;38.520;2023-03-30T05:28:56;16.37;;;8.65;;
47760;SDS011;33524;55.434;38.520;2023-03-30T05:31:28;12.57;;;6.90;;
47760;SDS011;33524;55.434;38.520;2023-03-30T05:34:00;12.60;;;7.10;;
47760;SDS011;33524;55.434;38.520;2023-03-30T05:36:32;12.50;;;6.85;;
47760;SDS011;33524;55.434;38.520;2023-03-30T05:39:03;15.85;;;7.50;;
47760;SDS011;33524;55.434;38.520;2023-03-30T05:41:44;12.02;;;7.07;;
47760;SDS011;33524;55.434;38.520;2023-03-30T05:44:16;13.98;;;7.43;;
47760;SDS011;33524;55.434;38.520;2023-03-30T05:46:50;13.32;;;6.75;;
47760;SDS011;33524;55.434;38.520;2023-03-30T05:49:22;11.27;;;6.65;;
47760;SDS011;33524;55.434;38.520;2023-03-30T05:51:54;13.90;;;7.20;;
47760;SDS011;33524;55.434;38.520;2023-03-30T05:54:25;12.70;;;7.50;;
47760;SDS011;33524;55.434;38.520;2023-03-30T05:56:58;12.98;;;6.65;;
47760;SDS011;33524;55.434;38.520;2023-03-30T05:59:30;13.43;;;7.55;;
47760;SDS011;33524;55.434;38.520;2023-03-30T06:02:01;19.80;;;8.15;;
47760;SDS011;33524;55.434;38.520;2023-03-30T06:04:39;14.23;;;7.68;;
47760;SDS011;33524;55.434;38.520;2023-03-30T06:07:11;15.15;;;7.35;;
47760;SDS011;33524;55.434;38.520;2023-03-30T06:09:45;14.32;;;7.47;;
47760;SDS011;33524;55.434;38.520;2023-03-30T06:12:15;13.80;;;8.02;;
47760;SDS011;33524;55.434;38.520;2023-03-30T06:14:47;13.10;;;7.95;;
47760;SDS011;33524;55.434;38.520;2023-03-30T06:17:19;14.02;;;7.47;;
47760;SDS011;33524;55.434;38.520;2023-03-30T06:19:51;11.55;;;6.05;;
47760;SDS011;33524;55.434;38.520;2023-03-30T06:22:23;11.38;;;6.75;;
47760;SDS011;33524;55.434;38.520;2023-03-30T06:25:00;11.88;;;6.55;;
47760;SDS011;33524;55.434;38.520;2023-03-30T06:27:34;11.65;;;6.40;;
47760;SDS011;33524;55.434;38.520;2023-03-30T06:30:06;11.63;;;6.80;;
47760;SDS011;33524;55.434;38.520;2023-03-30T06:32:42;10.55;;;5.90;;
47760;SDS011;33524;55.434;38.520;2023-03-30T06:35:15;11.82;;;6.05;;
47760;SDS011;33524;55.434;38.520;2023-03-30T06:37:46;12.02;;;7.03;;
47760;SDS011;33524;55.434;38.520;2023-03-30T06:40:19;12.30;;;5.97;;
47760;SDS011;33524;55.434;38.520;2023-03-30T06:42:51;13.07;;;6.30;;
47760;SDS011;33524;55.434;38.520;2023-03-30T06:45:25;11.10;;;5.07;;
47760;SDS011;33524;55.434;38.520;2023-03-30T06:47:57;8.53;;;4.67;;
47760;SDS011;33524;55.434;38.520;2023-03-30T06:50:30;9.23;;;5.68;;
47760;SDS011;33524;55.434;38.520;2023-03-30T06:53:02;9.35;;;5.53;;
47760;SDS011;33524;55.434;38.520;2023-03-30T06:55:35;10.85;;;5.45;;
47760;SDS011;33524;55.434;38.520;2023-03-30T06:58:07;9.70;;;5.10;;
47760;SDS011;33524;55.434;38.520;2023-03-30T07:00:40;11.05;;;6.03;;
47760;SDS011;33524;55.434;38.520;2023-03-30T07:03:18;7.97;;;4.47;;
47760;SDS011;33524;55.434;38.520;2023-03-30T07:05:51;9.07;;;5.18;;
47760;SDS011;33524;55.434;38.520;2023-03-30T07:08:23;11.38;;;5.50;;
47760;SDS011;33524;55.434;38.520;2023-03-30T07:10:55;8.32;;;4.65;;
47760;SDS011;33524;55.434;38.520;2023-03-30T07:13:29;9.82;;;4.68;;
47760;SDS011;33524;55.434;38.520;2023-03-30T07:16:01;7.80;;;4.53;;
47760;SDS011;33524;55.434;38.520;2023-03-30T07:18:31;9.57;;;5.03;;
47760;SDS011;33524;55.434;38.520;2023-03-30T07:23:36;7.93;;;4.65;;
47760;SDS011;33524;55.434;38.520;2023-03-30T07:26:10;7.47;;;4.43;;
47760;SDS011;33524;55.434;38.520;2023-03-30T07:28:42;8.57;;;4.45;;
47760;SDS011;33524;55.434;38.520;2023-03-30T07:31:15;8.93;;;3.90;;
47760;SDS011;33524;55.434;38.520;2023-03-30T07:33:48;6.60;;;3.78;;
47760;SDS011;33524;55.434;38.520;2023-03-30T07:36:22;5.18;;;2.67;;
47760;SDS011;33524;55.434;38.520;2023-03-30T07:38:54;4.95;;;3.35;;
47760;SDS011;33524;55.434;38.520;2023-03-30T07:41:28;7.03;;;3.60;;
47760;SDS011;33524;55.434;38.520;2023-03-30T07:44:00;4.93;;;3.30;;
47760;SDS011;33524;55.434;38.520;2023-03-30T07:46:32;6.00;;;3.42;;
47760;SDS011;33524;55.434;38.520;2023-03-30T07:49:04;5.75;;;3.62;;
47760;SDS011;33524;55.434;38.520;2023-03-30T07:51:36;8.00;;;3.70;;
47760;SDS011;33524;55.434;38.520;2023-03-30T07:54:08;5.55;;;3.58;;
47760;SDS011;33524;55.434;38.520;2023-03-30T07:56:43;5.20;;;3.00;;
47760;SDS011;33524;55.434;38.520;2023-03-30T07:59:21;9.40;;;4.20;;
47760;SDS011;33524;55.434;38.520;2023-03-30T08:01:56;4.90;;;2.95;;
47760;SDS011;33524;55.434;38.520;2023-03-30T08:04:29;5.28;;;3.47;;
47760;SDS011;33524;55.434;38.520;2023-03-30T08:07:00;7.22;;;3.65;;
47760;SDS011;33524;55.434;38.520;2023-03-30T08:09:32;5.68;;;3.42;;
47760;SDS011;33524;55.434;38.520;2023-03-30T08:12:04;4.77;;;2.97;;
47760;SDS011;33524;55.434;38.520;2023-03-30T08:14:37;6.80;;;3.75;;
47760;SDS011;33524;55.434;38.520;2023-03-30T08:17:08;6.80;;;4.87;;
47760;SDS011;33524;55.434;38.520;2023-03-30T08:19:39;5.18;;;2.90;;
47760;SDS011;33524;55.434;38.520;2023-03-30T08:22:10;6.45;;;3.25;;
47760;SDS011;33524;55.434;38.520;2023-03-30T08:24:43;5.75;;;3.83;;
47760;SDS011;33524;55.434;38.520;2023-03-30T08:27:17;4.60;;;3.25;;
47760;SDS011;33524;55.434;38.520;2023-03-30T08:29:49;7.30;;;4.47;;
47760;SDS011;33524;55.434;38.520;2023-03-30T08:32:23;6.03;;;3.42;;
47760;SDS011;33524;55.434;38.520;2023-03-30T08:34:55;7.97;;;4.40;;
47760;SDS011;33524;55.434;38.520;2023-03-30T08:37:28;8.88;;;4.37;;
47760;SDS011;33524;55.434;38.520;2023-03-30T08:40:00;7.85;;;4.57;;
47760;SDS011;33524;55.434;38.520;2023-03-30T08:42:43;8.35;;;4.32;;
47760;SDS011;33524;55.434;38.520;2023-03-30T08:45:34;8.77;;;3.65;;
47760;SDS011;33524;55.434;38.520;2023-03-30T08:48:18;6.62;;;4.05;;
47760;SDS011;33524;55.434;38.520;2023-03-30T08:50:58;6.87;;;4.20;;
47760;SDS011;33524;55.434;38.520;2023-03-30T08:53:34;7.07;;;4.40;;
47760;SDS011;33524;55.434;38.520;2023-03-30T08:58:54;8.60;;;4.40;;
47760;SDS011;33524;55.434;38.520;2023-03-30T09:02:42;8.63;;;4.25;;
47760;SDS011;33524;55.434;38.520;2023-03-30T09:04:43;6.72;;;4.03;;
47760;SDS011;33524;55.434;38.520;2023-03-30T09:07:28;7.45;;;4.10;;
47760;SDS011;33524;55.434;38.520;2023-03-30T09:10:10;5.65;;;3.97;;
47760;SDS011;33524;55.434;38.520;2023-03-30T09:12:44;7.50;;;4.47;;
47760;SDS011;33524;55.434;38.520;2023-03-30T09:15:25;6.00;;;4.47;;
47760;SDS011;33524;55.434;38.520;2023-03-30T09:20:35;6.47;;;3.92;;
47760;SDS011;33524;55.434;38.520;2023-03-30T09:23:15;6.05;;;3.53;;
47760;SDS011;33524;55.434;38.520;2023-03-30T09:28:33;4.97;;;3.33;;
47760;SDS011;33524;55.434;38.520;2023-03-30T09:31:13;7.28;;;3.65;;
47760;SDS011;33524;55.434;38.520;2023-03-30T09:33:56;6.25;;;3.30;;
47760;SDS011;33524;55.434;38.520;2023-03-30T09:36:38;6.15;;;3.67;;
47760;SDS011;33524;55.434;38.520;2023-03-30T09:39:24;5.28;;;3.22;;
47760;SDS011;33524;55.434;38.520;2023-03-30T09:44:46;5.60;;;3.53;;
47760;SDS011;33524;55.434;38.520;2023-03-30T09:50:00;5.45;;;3.15;;
47760;SDS011;33524;55.434;38.520;2023-03-30T09:52:37;7.40;;;3.22;;
47760;SDS011;33524;55.434;38.520;2023-03-30T09:55:27;5.57;;;3.25;;
47760;SDS011;33524;55.434;38.520;2023-03-30T09:58:12;4.80;;;2.90;;
47760;SDS011;33524;55.434;38.520;2023-03-30T10:01:22;5.45;;;3.00;;
47760;SDS011;33524;55.434;38.520;2023-03-30T10:04:07;4.55;;;3.17;;
47760;SDS011;33524;55.434;38.520;2023-03-30T10:06:45;5.72;;;3.12;;
47760;SDS011;33524;55.434;38.520;2023-03-30T10:09:20;10.35;;;3.25;;
47760;SDS011;33524;55.434;38.520;2023-03-30T10:11:53;7.20;;;3.47;;
47760;SDS011;33524;55.434;38.520;2023-03-30T10:14:35;5.32;;;3.28;;
47760;SDS011;33524;55.434;38.520;2023-03-30T10:17:15;5.53;;;3.40;;
47760;SDS011;33524;55.434;38.520;2023-03-30T10:19:51;4.90;;;2.60;;
47760;SDS011;33524;55.434;38.520;2023-03-30T10:23:14;3.95;;;2.85;;
47760;SDS011;33524;55.434;38.520;2023-03-30T10:25:34;4.72;;;2.85;;
47760;SDS011;33524;55.434;38.520;2023-03-30T10:28:12;5.80;;;2.90;;
47760;SDS011;33524;55.434;38.520;2023-03-30T10:30:51;5.60;;;2.75;;
47760;SDS011;33524;55.434;38.520;2023-03-30T10:33:25;3.87;;;2.65;;
47760;SDS011;33524;55.434;38.520;2023-03-30T10:35:58;5.10;;;2.95;;
47760;SDS011;33524;55.434;38.520;2023-03-30T10:38:30;4.97;;;3.00;;
47760;SDS011;33524;55.434;38.520;2023-03-30T10:41:08;4.22;;;2.72;;
47760;SDS011;33524;55.434;38.520;2023-03-30T10:43:41;4.70;;;2.92;;
47760;SDS011;33524;55.434;38.520;2023-03-30T10:46:17;4.32;;;2.65;;
47760;SDS011;33524;55.434;38.520;2023-03-30T10:49:12;6.07;;;2.80;;
47760;SDS011;33524;55.434;38.520;2023-03-30T10:54:41;4.30;;;2.90;;
47760;SDS011;33524;55.434;38.520;2023-03-30T11:03:36;9.02;;;3.08;;
47760;SDS011;33524;55.434;38.520;2023-03-30T11:06:19;4.80;;;2.85;;
47760;SDS011;33524;55.434;38.520;2023-03-30T11:08:58;4.93;;;2.95;;
47760;SDS011;33524;55.434;38.520;2023-03-30T11:11:37;5.82;;;2.87;;
47760;SDS011;33524;55.434;38.520;2023-03-30T11:14:12;4.35;;;2.78;;
47760;SDS011;33524;55.434;38.520;2023-03-30T11:16:58;3.20;;;2.30;;
47760;SDS011;33524;55.434;38.520;2023-03-30T11:19:39;5.62;;;2.78;;
47760;SDS011;33524;55.434;38.520;2023-03-30T11:22:23;4.72;;;2.60;;
47760;SDS011;33524;55.434;38.520;2023-03-30T11:25:06;4.47;;;2.20;;
47760;SDS011;33524;55.434;38.520;2023-03-30T11:30:51;4.87;;;2.72;;
47760;SDS011;33524;55.434;38.520;2023-03-30T11:33:33;5.40;;;3.22;;
47760;SDS011;33524;55.434;38.520;2023-03-30T11:36:15;5.95;;;3.22;;
47760;SDS011;33524;55.434;38.520;2023-03-30T11:38:57;4.00;;;2.47;;
47760;SDS011;33524;55.434;38.520;2023-03-30T11:41:35;4.70;;;2.45;;
47760;SDS011;33524;55.434;38.520;2023-03-30T11:44:12;3.87;;;2.37;;
47760;SDS011;33524;55.434;38.520;2023-03-30T11:46:47;5.95;;;3.40;;
47760;SDS011;33524;55.434;38.520;2023-03-30T11:49:34;5.97;;;3.15;;
47760;SDS011;33524;55.434;38.520;2023-03-30T11:52:15;5.60;;;3.37;;
47760;SDS011;33524;55.434;38.520;2023-03-30T11:55:06;5.97;;;3.12;;
47760;SDS011;33524;55.434;38.520;2023-03-30T11:58:04;5.28;;;3.33;;
47760;SDS011;33524;55.434;38.520;2023-03-30T12:01:01;6.75;;;2.97;;
47760;SDS011;33524;55.434;38.520;2023-03-30T12:03:41;5.93;;;3.17;;
47760;SDS011;33524;55.434;38.520;2023-03-30T12:06:26;4.53;;;2.55;;
47760;SDS011;33524;55.434;38.520;2023-03-30T12:11:55;4.05;;;2.42;;
47760;SDS011;33524;55.434;38.520;2023-03-30T12:20:40;6.45;;;3.60;;
47760;SDS011;33524;55.434;38.520;2023-03-30T12:23:24;6.55;;;3.50;;
47760;SDS011;33524;55.434;38.520;2023-03-30T12:26:22;6.97;;;4.22;;
47760;SDS011;33524;55.434;38.520;2023-03-30T12:28:58;7.78;;;5.97;;
47760;SDS011;33524;55.434;38.520;2023-03-30T12:32:03;7.90;;;4.30;;
47760;SDS011;33524;55.434;38.520;2023-03-30T12:34:37;6.12;;;4.18;;
47760;SDS011;33524;55.434;38.520;2023-03-30T12:39:53;6.25;;;3.62;;
47760;SDS011;33524;55.434;38.520;2023-03-30T12:42:33;8.70;;;4.12;;
47760;SDS011;33524;55.434;38.520;2023-03-30T12:54:03;10.85;;;5.45;;
47760;SDS011;33524;55.434;38.520;2023-03-30T12:56:47;9.45;;;5.40;;
47760;SDS011;33524;55.434;38.520;2023-03-30T13:02:46;7.90;;;5.65;;
47760;SDS011;33524;55.434;38.520;2023-03-30T13:05:34;10.57;;;5.85;;
47760;SDS011;33524;55.434;38.520;2023-03-30T13:08:21;7.65;;;4.78;;
47760;SDS011;33524;55.434;38.520;2023-03-30T13:11:10;9.57;;;5.53;;
47760;SDS011;33524;55.434;38.520;2023-03-30T13:16:44;8.45;;;5.70;;
47760;SDS011;33524;55.434;38.520;2023-03-30T13:19:20;10.95;;;5.62;;
47760;SDS011;33524;55.434;38.520;2023-03-30T13:22:01;7.30;;;5.80;;
47760;SDS011;33524;55.434;38.520;2023-03-30T13:24:43;11.15;;;7.10;;
47760;SDS011;33524;55.434;38.520;2023-03-30T13:27:24;9.57;;;7.47;;
47760;SDS011;33524;55.434;38.520;2023-03-30T13:39:07;10.07;;;8.32;;
47760;SDS011;33524;55.434;38.520;2023-03-30T13:46:47;7.47;;;5.18;;
47760;SDS011;33524;55.434;38.520;2023-03-30T13:49:43;11.98;;;5.35;;
47760;SDS011;33524;55.434;38.520;2023-03-30T13:52:29;7.55;;;6.37;;
47760;SDS011;33524;55.434;38.520;2023-03-30T13:55:08;10.20;;;6.80;;
47760;SDS011;33524;55.434;38.520;2023-03-30T13:57:48;8.43;;;5.87;;
47760;SDS011;33524;55.434;38.520;2023-03-30T14:00:28;9.32;;;6.95;;
47760;SDS011;33524;55.434;38.520;2023-03-30T14:03:24;7.32;;;4.93;;
47760;SDS011;33524;55.434;38.520;2023-03-30T14:06:01;7.00;;;5.65;;
47760;SDS011;33524;55.434;38.520;2023-03-30T14:08:37;7.12;;;5.40;;
47760;SDS011;33524;55.434;38.520;2023-03-30T14:11:12;7.57;;;6.53;;
47760;SDS011;33524;55.434;38.520;2023-03-30T14:13:49;9.80;;;7.25;;
47760;SDS011;33524;55.434;38.520;2023-03-30T14:16:25;9.07;;;7.55;;
47760;SDS011;33524;55.434;38.520;2023-03-30T14:24:26;8.90;;;6.50;;
47760;SDS011;33524;55.434;38.520;2023-03-30T14:27:01;7.07;;;6.37;;
47760;SDS011;33524;55.434;38.520;2023-03-30T14:29:42;7.10;;;5.60;;
47760;SDS011;33524;55.434;38.520;2023-03-30T14:32:18;7.53;;;6.68;;
47760;SDS011;33524;55.434;38.520;2023-03-30T14:34:52;8.27;;;6.28;;
47760;SDS011;33524;55.434;38.520;2023-03-30T14:37:24;6.72;;;6.00;;
47760;SDS011;33524;55.434;38.520;2023-03-30T14:39:59;9.52;;;6.60;;
47760;SDS011;33524;55.434;38.520;2023-03-30T14:42:35;10.60;;;5.65;;
47760;SDS011;33524;55.434;38.520;2023-03-30T14:47:41;7.87;;;6.70;;
47760;SDS011;33524;55.434;38.520;2023-03-30T14:50:13;8.98;;;8.07;;
47760;SDS011;33524;55.434;38.520;2023-03-30T14:52:46;11.77;;;7.00;;
47760;SDS011;33524;55.434;38.520;2023-03-30T14:55:21;9.98;;;8.02;;
47760;SDS011;33524;55.434;38.520;2023-03-30T14:57:54;9.45;;;6.55;;
47760;SDS011;33524;55.434;38.520;2023-03-30T15:00:26;10.90;;;8.23;;
47760;SDS011;33524;55.434;38.520;2023-03-30T15:05:32;11.20;;;9.02;;
47760;SDS011;33524;55.434;38.520;2023-03-30T15:08:15;11.38;;;9.32;;
47760;SDS011;33524;55.434;38.520;2023-03-30T15:10:55;12.70;;;8.85;;
47760;SDS011;33524;55.434;38.520;2023-03-30T15:13:44;11.45;;;9.80;;
47760;SDS011;33524;55.434;38.520;2023-03-30T15:16:26;11.27;;;8.10;;
47760;SDS011;33524;55.434;38.520;2023-03-30T15:19:03;9.65;;;7.90;;
47760;SDS011;33524;55.434;38.520;2023-03-30T15:21:39;19.45;;;14.77;;
47760;SDS011;33524;55.434;38.520;2023-03-30T15:24:13;13.52;;;9.65;;
47760;SDS011;33524;55.434;38.520;2023-03-30T15:26:52;11.63;;;7.82;;
47760;SDS011;33524;55.434;38.520;2023-03-30T15:29:28;12.30;;;8.15;;
47760;SDS011;33524;55.434;38.520;2023-03-30T15:32:06;24.23;;;14.43;;
47760;SDS011;33524;55.434;38.520;2023-03-30T15:35:24;13.13;;;8.15;;
47760;SDS011;33524;55.434;38.520;2023-03-30T15:45:52;18.08;;;12.00;;
47760;SDS011;33524;55.434;38.520;2023-03-30T15:48:45;18.92;;;10.75;;
47760;SDS011;33524;55.434;38.520;2023-03-30T15:56:46;16.05;;;12.10;;
47760;SDS011;33524;55.434;38.520;2023-03-30T15:59:19;18.42;;;10.15;;
47760;SDS011;33524;55.434;38.520;2023-03-30T16:02:11;17.50;;;13.50;;
47760;SDS011;33524;55.434;38.520;2023-03-30T16:04:46;14.52;;;10.85;;
47760;SDS011;33524;55.434;38.520;2023-03-30T16:07:20;15.05;;;10.82;;
47760;SDS011;33524;55.434;38.520;2023-03-30T16:09:53;17.42;;;11.98;;
47760;SDS011;33524;55.434;38.520;2023-03-30T16:12:27;17.37;;;12.80;;
47760;SDS011;33524;55.434;38.520;2023-03-30T16:15:00;17.25;;;12.77;;
47760;SDS011;33524;55.434;38.520;2023-03-30T16:17:31;17.67;;;12.70;;
47760;SDS011;33524;55.434;38.520;2023-03-30T16:20:11;18.67;;;14.43;;
47760;SDS011;33524;55.434;38.520;2023-03-30T16:22:46;20.02;;;14.10;;
47760;SDS011;33524;55.434;38.520;2023-03-30T16:25:20;20.40;;;16.73;;
47760;SDS011;33524;55.434;38.520;2023-03-30T16:28:13;19.77;;;15.67;;
47760;SDS011;33524;55.434;38.520;2023-03-30T16:30:46;21.25;;;15.30;;
47760;SDS011;33524;55.434;38.520;2023-03-30T16:33:21;19.90;;;14.32;;
47760;SDS011;33524;55.434;38.520;2023-03-30T16:35:53;16.45;;;11.15;;
47760;SDS011;33524;55.434;38.520;2023-03-30T16:38:25;18.37;;;12.73;;
47760;SDS011;33524;55.434;38.520;2023-03-30T16:40:56;14.02;;;10.98;;
47760;SDS011;33524;55.434;38.520;2023-03-30T16:43:29;16.67;;;13.00;;
47760;SDS011;33524;55.434;38.520;2023-03-30T16:46:02;15.67;;;11.33;;
47760;SDS011;33524;55.434;38.520;2023-03-30T16:48:34;17.40;;;12.88;;
47760;SDS011;33524;55.434;38.520;2023-03-30T16:51:04;21.77;;;14.18;;
47760;SDS011;33524;55.434;38.520;2023-03-30T16:53:38;17.65;;;12.13;;
47760;SDS011;33524;55.434;38.520;2023-03-30T16:56:12;17.23;;;11.55;;
47760;SDS011;33524;55.434;38.520;2023-03-30T16:58:46;15.73;;;11.12;;
47760;SDS011;33524;55.434;38.520;2023-03-30T17:01:17;18.05;;;10.18;;
47760;SDS011;33524;55.434;38.520;2023-03-30T17:03:46;14.05;;;9.43;;
47760;SDS011;33524;55.434;38.520;2023-03-30T17:06:32;14.57;;;10.27;;
47760;SDS011;33524;55.434;38.520;2023-03-30T17:09:04;14.93;;;10.55;;
47760;SDS011;33524;55.434;38.520;2023-03-30T17:11:40;16.67;;;11.10;;
47760;SDS011;33524;55.434;38.520;2023-03-30T17:14:13;15.93;;;12.00;;
47760;SDS011;33524;55.434;38.520;2023-03-30T17:16:44;15.60;;;10.82;;
47760;SDS011;33524;55.434;38.520;2023-03-30T17:19:15;15.20;;;10.80;;
47760;SDS011;33524;55.434;38.520;2023-03-30T17:21:47;17.33;;;13.10;;
47760;SDS011;33524;55.434;38.520;2023-03-30T17:24:20;16.37;;;11.05;;
47760;SDS011;33524;55.434;38.520;2023-03-30T17:26:51;16.33;;;10.50;;
47760;SDS011;33524;55.434;38.520;2023-03-30T17:29:29;15.13;;;9.90;;
47760;SDS011;33524;55.434;38.520;2023-03-30T17:32:00;17.70;;;12.75;;
47760;SDS011;33524;55.434;38.520;2023-03-30T17:34:35;16.98;;;12.73;;